Hepler, Kansas
Current Conditions -  °F | °C
As of 3:15 AM on Monday 24 Nov 2014 (Local Time) from KPTS Reporting Station
Clear Clear  
Wind Chill: 37°   Ceiling: Unl
Heat Index: 42°   Visibility: 10mi
Dew Point: 32°   Wind: 8mph
Humidity: 69%   Direction: 310°NW
Pressure: 29.65"   Gusts: 17mph
Location:  37.66°N, 94.97°W
Report Text: KPTS 240915Z AUTO 31007G15KT 10SM CLR 05/00 A2965 RMK AO2 T00540002
Loading
Personal Weather Stations






























Interactive Weather Map New forecast layout! Learn more

10-Day Weather Forecast

Advertisements
Track Severe Weather on mobile